Wednesday, June 20, 2018, 7:50 AM GMT
Back to Local

CWIS, Charlevoix CS , Que.

Location: , , Canada Lat: 47.283
Local Time: 7:50 AM GMT ( 7:50 GMT) Lon: -70.633
Time Zone: GMT Elev: 2358 ft

Show me the last for .
Show Coded

Time T Td Feel RH Dir Speed Gust Alt SLP Vis Weather Sky Remarks
2018-06-20 07:00 54 44 - 67 300° 6 - - 29.80 0 None
2018-06-20 06:00 52 44 - 72 270° 3 - - 29.81 0 None
2018-06-20 05:00 55 42 - 61 300° 6 - - 29.82 0 None
2018-06-20 04:00 56 42 - 59 300° 6 - - 29.83 0 None
2018-06-20 03:00 55 42 - 60 300° 5 - - 29.83 0 None
2018-06-20 02:00 56 42 - 59 300° 5 - - 29.84 0 None
2018-06-20 00:00 60 38 - 44 300° 3 - - 29.83 0 Peak wind: 20 mph (18 kts) from 330° at 18 min
2018-06-19 23:00 62 35 - 35 330° 7 - - 29.82 0 Peak wind: 19 mph (17 kts) from 320° at 04 min
2018-06-19 22:00 62 34 - 34 310° 12 21 - 29.81 0 Peak wind: 20 mph (18 kts) from 310° at 34 min
2018-06-19 21:00 63 33 - 32 320° 12 25 - 29.80 0 Peak wind: 25 mph (22 kts) from 330° at 57 min
2018-06-19 20:00 63 35 - 34 330° 9 23 - 29.79 0 Peak wind: 26 mph (23 kts) from 310° at 43 min
2018-06-19 19:00 63 36 - 36 320° 13 23 - 29.77 0 Peak wind: 26 mph (23 kts) from 310° at 01 min
2018-06-19 18:00 62 37 - 39 310° 9 18 - 29.77 0 Peak wind: 21 mph (19 kts) from 340° at 31 min
2018-06-19 17:00 61 35 - 37 320° 10 18 - 29.75 0 Peak wind: 24 mph (21 kts) from 310° at 22 min
2018-06-19 16:00 58 37 - 44 320° 13 25 - 29.75 0 Peak wind: 26 mph (23 kts) from 310° at 41 min
2018-06-19 15:00 56 36 - 46 310° 14 29 - 29.75 0 Peak wind: 28 mph (25 kts) from 310° at 58 min
2018-06-19 14:00 56 38 - 51 320° 12 23 - 29.73 0 Peak wind: 26 mph (23 kts) from 330° at 41 min
2018-06-19 12:00 50 42 - 73 310° 13 21 - 29.72 0 Peak wind: 26 mph (23 kts) from 330° at 17 min
2018-06-19 11:00 48 42 40 80 320° 15 26 - 29.70 0 Peak wind: 28 mph (25 kts) from 320° at 40 min
2018-06-19 10:00 48 42 41 80 330° 13 20 - 29.67 0 Peak wind: 27 mph (24 kts) from 330° at 49 min
2018-06-19 09:00 48 42 40 80 330° 14 24 - 29.65 0 Peak wind: 33 mph (29 kts) from 310° at 07 min
2018-06-19 08:00 47 43 38 86 320° 18 30 - 29.63 0 Peak wind: 31 mph (27 kts) from 320° at 44 min

Support USWX by starting your Amazon purchase here.